sensor_id;sensor_type;location;lat;lon;timestamp;P1;durP1;ratioP1;P2;durP2;ratioP2
63120;SDS011;54478;48.684;20.114;2023-05-27T00:01:56;13.47;;;7.93;;
63120;SDS011;54478;48.684;20.114;2023-05-27T00:04:24;18.77;;;9.45;;
63120;SDS011;54478;48.684;20.114;2023-05-27T00:06:52;13.07;;;8.82;;
63120;SDS011;54478;48.684;20.114;2023-05-27T00:09:21;13.95;;;8.70;;
63120;SDS011;54478;48.684;20.114;2023-05-27T00:11:49;12.27;;;8.27;;
63120;SDS011;54478;48.684;20.114;2023-05-27T00:14:17;16.75;;;8.55;;
63120;SDS011;54478;48.684;20.114;2023-05-27T00:16:45;14.75;;;8.80;;
63120;SDS011;54478;48.684;20.114;2023-05-27T00:19:14;13.77;;;7.85;;
63120;SDS011;54478;48.684;20.114;2023-05-27T00:21:42;16.95;;;8.77;;
63120;SDS011;54478;48.684;20.114;2023-05-27T00:24:11;14.73;;;8.52;;
63120;SDS011;54478;48.684;20.114;2023-05-27T00:26:39;12.85;;;8.88;;
63120;SDS011;54478;48.684;20.114;2023-05-27T00:29:07;16.75;;;9.40;;
63120;SDS011;54478;48.684;20.114;2023-05-27T00:31:35;17.10;;;8.95;;
63120;SDS011;54478;48.684;20.114;2023-05-27T00:34:03;13.38;;;9.00;;
63120;SDS011;54478;48.684;20.114;2023-05-27T00:36:31;13.82;;;7.80;;
63120;SDS011;54478;48.684;20.114;2023-05-27T00:39:00;16.45;;;9.25;;
63120;SDS011;54478;48.684;20.114;2023-05-27T00:41:28;20.75;;;9.25;;
63120;SDS011;54478;48.684;20.114;2023-05-27T00:43:56;14.13;;;9.02;;
63120;SDS011;54478;48.684;20.114;2023-05-27T00:46:24;13.63;;;8.43;;
63120;SDS011;54478;48.684;20.114;2023-05-27T00:48:53;16.25;;;9.23;;
63120;SDS011;54478;48.684;20.114;2023-05-27T00:51:21;13.05;;;8.65;;
63120;SDS011;54478;48.684;20.114;2023-05-27T00:53:50;12.73;;;8.63;;
63120;SDS011;54478;48.684;20.114;2023-05-27T00:56:18;14.52;;;9.25;;
63120;SDS011;54478;48.684;20.114;2023-05-27T00:58:45;12.90;;;8.45;;
63120;SDS011;54478;48.684;20.114;2023-05-27T01:01:14;14.70;;;8.52;;
63120;SDS011;54478;48.684;20.114;2023-05-27T01:03:42;11.73;;;8.10;;
63120;SDS011;54478;48.684;20.114;2023-05-27T01:06:13;15.43;;;8.02;;
63120;SDS011;54478;48.684;20.114;2023-05-27T01:11:10;11.77;;;8.30;;
63120;SDS011;54478;48.684;20.114;2023-05-27T01:13:41;13.73;;;7.50;;
63120;SDS011;54478;48.684;20.114;2023-05-27T01:16:12;15.18;;;8.18;;
63120;SDS011;54478;48.684;20.114;2023-05-27T01:18:41;12.55;;;7.55;;
63120;SDS011;54478;48.684;20.114;2023-05-27T01:21:13;12.37;;;7.67;;
63120;SDS011;54478;48.684;20.114;2023-05-27T01:23:42;12.40;;;7.25;;
63120;SDS011;54478;48.684;20.114;2023-05-27T01:26:10;8.70;;;6.70;;
63120;SDS011;54478;48.684;20.114;2023-05-27T01:28:38;12.85;;;7.05;;
63120;SDS011;54478;48.684;20.114;2023-05-27T01:31:15;17.38;;;7.32;;
63120;SDS011;54478;48.684;20.114;2023-05-27T01:33:42;12.25;;;7.10;;
63120;SDS011;54478;48.684;20.114;2023-05-27T01:36:15;10.85;;;7.07;;
63120;SDS011;54478;48.684;20.114;2023-05-27T01:38:44;12.85;;;6.55;;
63120;SDS011;54478;48.684;20.114;2023-05-27T01:41:13;10.95;;;6.40;;
63120;SDS011;54478;48.684;20.114;2023-05-27T01:43:41;10.57;;;6.40;;
63120;SDS011;54478;48.684;20.114;2023-05-27T01:46:10;9.07;;;5.75;;
63120;SDS011;54478;48.684;20.114;2023-05-27T01:48:38;9.55;;;5.57;;
63120;SDS011;54478;48.684;20.114;2023-05-27T01:51:07;15.30;;;6.03;;
63120;SDS011;54478;48.684;20.114;2023-05-27T01:53:35;13.10;;;5.95;;
63120;SDS011;54478;48.684;20.114;2023-05-27T01:56:03;8.70;;;5.55;;
63120;SDS011;54478;48.684;20.114;2023-05-27T01:58:28;14.13;;;6.30;;
63120;SDS011;54478;48.684;20.114;2023-05-27T02:00:56;13.73;;;7.23;;
63120;SDS011;54478;48.684;20.114;2023-05-27T02:03:25;18.02;;;6.93;;
63120;SDS011;54478;48.684;20.114;2023-05-27T02:05:55;12.27;;;6.35;;
63120;SDS011;54478;48.684;20.114;2023-05-27T02:08:23;13.70;;;6.22;;
63120;SDS011;54478;48.684;20.114;2023-05-27T02:10:51;14.15;;;6.28;;
63120;SDS011;54478;48.684;20.114;2023-05-27T02:13:19;8.90;;;5.32;;
63120;SDS011;54478;48.684;20.114;2023-05-27T02:15:47;16.40;;;6.93;;
63120;SDS011;54478;48.684;20.114;2023-05-27T02:18:15;11.00;;;6.45;;
63120;SDS011;54478;48.684;20.114;2023-05-27T02:20:43;9.73;;;5.57;;
63120;SDS011;54478;48.684;20.114;2023-05-27T02:23:11;9.25;;;5.80;;
63120;SDS011;54478;48.684;20.114;2023-05-27T02:25:39;12.70;;;6.28;;
63120;SDS011;54478;48.684;20.114;2023-05-27T02:28:07;10.98;;;6.53;;
63120;SDS011;54478;48.684;20.114;2023-05-27T02:30:35;12.98;;;6.78;;
63120;SDS011;54478;48.684;20.114;2023-05-27T02:33:04;14.63;;;6.38;;
63120;SDS011;54478;48.684;20.114;2023-05-27T02:35:32;13.20;;;6.78;;
63120;SDS011;54478;48.684;20.114;2023-05-27T02:38:00;10.38;;;5.78;;
63120;SDS011;54478;48.684;20.114;2023-05-27T02:40:28;10.35;;;5.47;;
63120;SDS011;54478;48.684;20.114;2023-05-27T02:42:56;10.50;;;5.95;;
63120;SDS011;54478;48.684;20.114;2023-05-27T02:45:24;11.60;;;6.00;;
63120;SDS011;54478;48.684;20.114;2023-05-27T02:47:53;12.32;;;6.68;;
63120;SDS011;54478;48.684;20.114;2023-05-27T02:50:23;9.32;;;6.18;;
63120;SDS011;54478;48.684;20.114;2023-05-27T02:52:51;12.52;;;6.47;;
63120;SDS011;54478;48.684;20.114;2023-05-27T02:55:19;12.10;;;5.90;;
63120;SDS011;54478;48.684;20.114;2023-05-27T02:57:47;11.63;;;6.15;;
63120;SDS011;54478;48.684;20.114;2023-05-27T03:00:15;13.40;;;6.53;;
63120;SDS011;54478;48.684;20.114;2023-05-27T03:02:44;11.05;;;6.10;;
63120;SDS011;54478;48.684;20.114;2023-05-27T03:05:12;13.05;;;5.50;;
63120;SDS011;54478;48.684;20.114;2023-05-27T03:07:40;8.85;;;5.43;;
63120;SDS011;54478;48.684;20.114;2023-05-27T03:10:09;10.63;;;5.75;;
63120;SDS011;54478;48.684;20.114;2023-05-27T03:12:37;12.90;;;5.82;;
63120;SDS011;54478;48.684;20.114;2023-05-27T03:15:06;11.10;;;5.57;;
63120;SDS011;54478;48.684;20.114;2023-05-27T03:17:37;9.60;;;4.88;;
63120;SDS011;54478;48.684;20.114;2023-05-27T03:20:06;10.93;;;5.40;;
63120;SDS011;54478;48.684;20.114;2023-05-27T03:22:35;10.65;;;5.78;;
63120;SDS011;54478;48.684;20.114;2023-05-27T03:25:04;10.10;;;5.80;;
63120;SDS011;54478;48.684;20.114;2023-05-27T03:27:33;9.73;;;5.13;;
63120;SDS011;54478;48.684;20.114;2023-05-27T03:30:02;16.65;;;5.93;;
63120;SDS011;54478;48.684;20.114;2023-05-27T03:32:31;11.90;;;6.45;;
63120;SDS011;54478;48.684;20.114;2023-05-27T03:34:59;15.05;;;6.13;;
63120;SDS011;54478;48.684;20.114;2023-05-27T03:37:27;10.52;;;5.90;;
63120;SDS011;54478;48.684;20.114;2023-05-27T03:39:56;11.98;;;5.10;;
63120;SDS011;54478;48.684;20.114;2023-05-27T03:42:25;12.70;;;6.30;;
63120;SDS011;54478;48.684;20.114;2023-05-27T03:44:53;12.40;;;5.95;;
63120;SDS011;54478;48.684;20.114;2023-05-27T03:47:21;13.48;;;5.75;;
63120;SDS011;54478;48.684;20.114;2023-05-27T03:49:49;12.65;;;6.25;;
63120;SDS011;54478;48.684;20.114;2023-05-27T03:52:17;9.50;;;4.97;;
63120;SDS011;54478;48.684;20.114;2023-05-27T03:54:45;9.70;;;5.45;;
63120;SDS011;54478;48.684;20.114;2023-05-27T03:57:13;9.82;;;5.63;;
63120;SDS011;54478;48.684;20.114;2023-05-27T03:59:39;12.80;;;5.45;;
63120;SDS011;54478;48.684;20.114;2023-05-27T04:02:07;13.85;;;5.95;;
63120;SDS011;54478;48.684;20.114;2023-05-27T04:04:35;12.13;;;5.97;;
63120;SDS011;54478;48.684;20.114;2023-05-27T04:07:04;8.77;;;5.25;;
63120;SDS011;54478;48.684;20.114;2023-05-27T04:09:32;15.68;;;5.75;;
63120;SDS011;54478;48.684;20.114;2023-05-27T04:12:00;12.80;;;5.53;;
63120;SDS011;54478;48.684;20.114;2023-05-27T04:14:28;8.70;;;5.50;;
63120;SDS011;54478;48.684;20.114;2023-05-27T04:16:56;12.27;;;5.50;;
63120;SDS011;54478;48.684;20.114;2023-05-27T04:19:24;15.40;;;6.50;;
63120;SDS011;54478;48.684;20.114;2023-05-27T04:21:52;11.50;;;5.82;;
63120;SDS011;54478;48.684;20.114;2023-05-27T04:24:20;14.93;;;5.80;;
63120;SDS011;54478;48.684;20.114;2023-05-27T04:26:48;11.25;;;6.00;;
63120;SDS011;54478;48.684;20.114;2023-05-27T04:29:16;13.57;;;6.32;;
63120;SDS011;54478;48.684;20.114;2023-05-27T04:31:44;8.70;;;5.32;;
63120;SDS011;54478;48.684;20.114;2023-05-27T04:34:15;9.10;;;5.18;;
63120;SDS011;54478;48.684;20.114;2023-05-27T04:36:44;15.38;;;5.97;;
63120;SDS011;54478;48.684;20.114;2023-05-27T04:39:17;11.60;;;6.13;;
63120;SDS011;54478;48.684;20.114;2023-05-27T04:41:45;12.48;;;6.22;;
63120;SDS011;54478;48.684;20.114;2023-05-27T04:44:14;13.45;;;6.22;;
63120;SDS011;54478;48.684;20.114;2023-05-27T04:46:42;10.32;;;5.85;;
63120;SDS011;54478;48.684;20.114;2023-05-27T04:49:11;11.10;;;5.82;;
63120;SDS011;54478;48.684;20.114;2023-05-27T04:51:39;9.85;;;5.75;;
63120;SDS011;54478;48.684;20.114;2023-05-27T04:54:07;11.32;;;5.88;;
63120;SDS011;54478;48.684;20.114;2023-05-27T04:56:35;11.07;;;5.63;;
63120;SDS011;54478;48.684;20.114;2023-05-27T04:59:01;10.75;;;5.20;;
63120;SDS011;54478;48.684;20.114;2023-05-27T05:01:29;10.88;;;4.38;;
63120;SDS011;54478;48.684;20.114;2023-05-27T05:04:07;13.57;;;5.57;;
63120;SDS011;54478;48.684;20.114;2023-05-27T05:06:39;12.98;;;4.75;;
63120;SDS011;54478;48.684;20.114;2023-05-27T05:09:07;10.30;;;4.68;;
63120;SDS011;54478;48.684;20.114;2023-05-27T05:11:37;8.50;;;4.95;;
63120;SDS011;54478;48.684;20.114;2023-05-27T05:14:04;8.30;;;4.57;;
63120;SDS011;54478;48.684;20.114;2023-05-27T05:16:33;8.00;;;4.18;;
63120;SDS011;54478;48.684;20.114;2023-05-27T05:19:01;9.48;;;4.47;;
63120;SDS011;54478;48.684;20.114;2023-05-27T05:21:29;10.10;;;4.22;;
63120;SDS011;54478;48.684;20.114;2023-05-27T05:23:57;12.02;;;4.95;;
63120;SDS011;54478;48.684;20.114;2023-05-27T05:26:26;8.50;;;4.53;;
63120;SDS011;54478;48.684;20.114;2023-05-27T05:28:54;8.80;;;4.32;;
63120;SDS011;54478;48.684;20.114;2023-05-27T05:31:22;15.13;;;4.57;;
63120;SDS011;54478;48.684;20.114;2023-05-27T05:33:50;7.88;;;4.18;;
63120;SDS011;54478;48.684;20.114;2023-05-27T05:36:18;6.88;;;4.00;;
63120;SDS011;54478;48.684;20.114;2023-05-27T05:38:44;6.28;;;3.63;;
63120;SDS011;54478;48.684;20.114;2023-05-27T05:41:12;9.25;;;3.85;;
63120;SDS011;54478;48.684;20.114;2023-05-27T05:43:40;7.55;;;4.20;;
63120;SDS011;54478;48.684;20.114;2023-05-27T05:46:08;5.95;;;3.53;;
63120;SDS011;54478;48.684;20.114;2023-05-27T05:48:37;8.63;;;4.15;;
63120;SDS011;54478;48.684;20.114;2023-05-27T05:51:05;9.02;;;3.80;;
63120;SDS011;54478;48.684;20.114;2023-05-27T05:53:33;10.02;;;3.88;;
63120;SDS011;54478;48.684;20.114;2023-05-27T05:56:01;8.18;;;4.10;;
63120;SDS011;54478;48.684;20.114;2023-05-27T05:58:26;9.00;;;3.63;;
63120;SDS011;54478;48.684;20.114;2023-05-27T06:00:54;7.93;;;3.93;;
63120;SDS011;54478;48.684;20.114;2023-05-27T06:03:23;10.23;;;3.60;;
63120;SDS011;54478;48.684;20.114;2023-05-27T06:05:51;9.68;;;3.85;;
63120;SDS011;54478;48.684;20.114;2023-05-27T06:08:19;8.35;;;3.30;;
63120;SDS011;54478;48.684;20.114;2023-05-27T06:10:47;8.75;;;3.67;;
63120;SDS011;54478;48.684;20.114;2023-05-27T06:13:15;6.95;;;3.45;;
63120;SDS011;54478;48.684;20.114;2023-05-27T06:15:44;11.10;;;4.35;;
63120;SDS011;54478;48.684;20.114;2023-05-27T06:18:11;6.60;;;3.65;;
63120;SDS011;54478;48.684;20.114;2023-05-27T06:20:40;8.05;;;3.78;;
63120;SDS011;54478;48.684;20.114;2023-05-27T06:23:08;11.23;;;3.30;;
63120;SDS011;54478;48.684;20.114;2023-05-27T06:25:36;4.95;;;2.67;;
63120;SDS011;54478;48.684;20.114;2023-05-27T06:28:04;6.88;;;3.42;;
63120;SDS011;54478;48.684;20.114;2023-05-27T06:30:32;6.28;;;2.80;;
63120;SDS011;54478;48.684;20.114;2023-05-27T06:33:00;7.63;;;3.53;;
63120;SDS011;54478;48.684;20.114;2023-05-27T06:35:28;8.63;;;3.28;;
63120;SDS011;54478;48.684;20.114;2023-05-27T06:37:58;8.95;;;3.55;;
63120;SDS011;54478;48.684;20.114;2023-05-27T06:40:26;10.60;;;3.83;;
63120;SDS011;54478;48.684;20.114;2023-05-27T06:42:54;10.00;;;3.75;;
63120;SDS011;54478;48.684;20.114;2023-05-27T06:45:22;6.55;;;3.47;;
63120;SDS011;54478;48.684;20.114;2023-05-27T06:47:50;7.00;;;3.10;;
63120;SDS011;54478;48.684;20.114;2023-05-27T06:50:18;8.23;;;3.10;;
63120;SDS011;54478;48.684;20.114;2023-05-27T06:52:46;6.13;;;3.00;;
63120;SDS011;54478;48.684;20.114;2023-05-27T06:55:14;6.07;;;3.03;;
63120;SDS011;54478;48.684;20.114;2023-05-27T06:57:43;8.30;;;3.53;;
63120;SDS011;54478;48.684;20.114;2023-05-27T07:00:08;8.23;;;3.13;;
63120;SDS011;54478;48.684;20.114;2023-05-27T07:02:36;9.77;;;3.10;;
63120;SDS011;54478;48.684;20.114;2023-05-27T07:05:04;7.25;;;2.60;;
63120;SDS011;54478;48.684;20.114;2023-05-27T07:07:33;8.82;;;3.17;;
63120;SDS011;54478;48.684;20.114;2023-05-27T07:10:01;8.27;;;3.58;;
63120;SDS011;54478;48.684;20.114;2023-05-27T07:12:29;7.53;;;3.05;;
63120;SDS011;54478;48.684;20.114;2023-05-27T07:14:57;7.57;;;3.00;;
63120;SDS011;54478;48.684;20.114;2023-05-27T07:17:25;10.38;;;3.33;;
63120;SDS011;54478;48.684;20.114;2023-05-27T07:19:53;6.38;;;2.90;;
63120;SDS011;54478;48.684;20.114;2023-05-27T07:22:21;7.55;;;3.47;;
63120;SDS011;54478;48.684;20.114;2023-05-27T07:24:49;7.88;;;3.03;;
63120;SDS011;54478;48.684;20.114;2023-05-27T07:27:17;8.95;;;3.10;;
63120;SDS011;54478;48.684;20.114;2023-05-27T07:29:45;6.55;;;2.83;;
63120;SDS011;54478;48.684;20.114;2023-05-27T07:32:13;10.13;;;3.83;;
63120;SDS011;54478;48.684;20.114;2023-05-27T07:34:41;7.70;;;2.95;;
63120;SDS011;54478;48.684;20.114;2023-05-27T07:37:09;8.68;;;3.78;;
63120;SDS011;54478;48.684;20.114;2023-05-27T07:39:37;7.22;;;3.25;;
63120;SDS011;54478;48.684;20.114;2023-05-27T07:42:06;7.53;;;3.25;;
63120;SDS011;54478;48.684;20.114;2023-05-27T07:44:34;9.70;;;3.25;;
63120;SDS011;54478;48.684;20.114;2023-05-27T07:47:02;13.27;;;4.03;;
63120;SDS011;54478;48.684;20.114;2023-05-27T07:49:30;7.85;;;3.00;;
63120;SDS011;54478;48.684;20.114;2023-05-27T07:51:58;8.30;;;3.65;;
63120;SDS011;54478;48.684;20.114;2023-05-27T07:54:26;5.95;;;3.13;;
63120;SDS011;54478;48.684;20.114;2023-05-27T07:56:54;6.97;;;3.45;;
63120;SDS011;54478;48.684;20.114;2023-05-27T07:59:22;6.82;;;3.47;;
63120;SDS011;54478;48.684;20.114;2023-05-27T08:01:50;9.67;;;3.40;;
63120;SDS011;54478;48.684;20.114;2023-05-27T08:04:18;9.32;;;3.65;;
63120;SDS011;54478;48.684;20.114;2023-05-27T08:06:46;8.07;;;2.92;;
63120;SDS011;54478;48.684;20.114;2023-05-27T08:09:14;6.32;;;3.40;;
63120;SDS011;54478;48.684;20.114;2023-05-27T08:11:43;8.88;;;3.50;;
63120;SDS011;54478;48.684;20.114;2023-05-27T08:14:11;11.77;;;3.13;;
63120;SDS011;54478;48.684;20.114;2023-05-27T08:16:41;6.60;;;3.15;;
63120;SDS011;54478;48.684;20.114;2023-05-27T08:19:08;7.45;;;3.53;;
63120;SDS011;54478;48.684;20.114;2023-05-27T08:21:36;7.63;;;3.53;;
63120;SDS011;54478;48.684;20.114;2023-05-27T08:24:05;6.57;;;2.95;;
63120;SDS011;54478;48.684;20.114;2023-05-27T08:26:33;6.82;;;3.00;;
63120;SDS011;54478;48.684;20.114;2023-05-27T08:29:01;6.00;;;2.92;;
63120;SDS011;54478;48.684;20.114;2023-05-27T08:31:29;9.60;;;3.33;;
63120;SDS011;54478;48.684;20.114;2023-05-27T08:33:57;10.98;;;3.10;;
63120;SDS011;54478;48.684;20.114;2023-05-27T08:36:25;8.50;;;2.80;;
63120;SDS011;54478;48.684;20.114;2023-05-27T08:38:53;7.15;;;3.65;;
63120;SDS011;54478;48.684;20.114;2023-05-27T08:41:21;7.25;;;2.92;;
63120;SDS011;54478;48.684;20.114;2023-05-27T08:43:50;8.50;;;3.08;;
63120;SDS011;54478;48.684;20.114;2023-05-27T08:46:18;10.45;;;3.25;;
63120;SDS011;54478;48.684;20.114;2023-05-27T08:48:49;6.25;;;2.92;;
63120;SDS011;54478;48.684;20.114;2023-05-27T08:51:17;5.25;;;2.80;;
63120;SDS011;54478;48.684;20.114;2023-05-27T08:53:48;8.25;;;3.10;;
63120;SDS011;54478;48.684;20.114;2023-05-27T08:56:18;5.07;;;2.53;;
63120;SDS011;54478;48.684;20.114;2023-05-27T08:58:44;9.27;;;3.30;;
63120;SDS011;54478;48.684;20.114;2023-05-27T09:01:13;5.50;;;2.83;;
63120;SDS011;54478;48.684;20.114;2023-05-27T09:03:44;6.70;;;2.92;;
63120;SDS011;54478;48.684;20.114;2023-05-27T09:06:13;7.13;;;3.10;;
63120;SDS011;54478;48.684;20.114;2023-05-27T09:08:41;8.30;;;3.90;;
63120;SDS011;54478;48.684;20.114;2023-05-27T09:11:18;7.57;;;3.08;;
63120;SDS011;54478;48.684;20.114;2023-05-27T09:13:44;3.97;;;2.50;;
63120;SDS011;54478;48.684;20.114;2023-05-27T09:16:14;7.00;;;2.70;;
63120;SDS011;54478;48.684;20.114;2023-05-27T09:18:42;5.97;;;2.80;;
63120;SDS011;54478;48.684;20.114;2023-05-27T09:21:10;7.45;;;2.88;;
63120;SDS011;54478;48.684;20.114;2023-05-27T09:23:40;6.47;;;3.25;;
63120;SDS011;54478;48.684;20.114;2023-05-27T09:26:08;9.30;;;3.20;;
63120;SDS011;54478;48.684;20.114;2023-05-27T09:28:38;8.05;;;3.60;;
63120;SDS011;54478;48.684;20.114;2023-05-27T09:31:07;7.40;;;3.08;;
63120;SDS011;54478;48.684;20.114;2023-05-27T09:33:36;10.77;;;3.05;;
63120;SDS011;54478;48.684;20.114;2023-05-27T09:36:05;7.70;;;3.35;;
63120;SDS011;54478;48.684;20.114;2023-05-27T09:38:34;7.25;;;3.00;;
63120;SDS011;54478;48.684;20.114;2023-05-27T09:41:03;5.53;;;2.70;;
63120;SDS011;54478;48.684;20.114;2023-05-27T09:43:31;5.93;;;2.83;;
63120;SDS011;54478;48.684;20.114;2023-05-27T09:46:00;5.78;;;2.80;;
63120;SDS011;54478;48.684;20.114;2023-05-27T09:48:30;9.15;;;3.28;;
63120;SDS011;54478;48.684;20.114;2023-05-27T09:50:59;11.75;;;3.15;;
63120;SDS011;54478;48.684;20.114;2023-05-27T09:53:28;7.18;;;3.45;;
63120;SDS011;54478;48.684;20.114;2023-05-27T09:55:58;7.40;;;3.28;;
63120;SDS011;54478;48.684;20.114;2023-05-27T09:58:24;8.70;;;3.13;;
63120;SDS011;54478;48.684;20.114;2023-05-27T10:00:52;6.10;;;2.88;;
63120;SDS011;54478;48.684;20.114;2023-05-27T10:03:22;7.90;;;3.40;;
63120;SDS011;54478;48.684;20.114;2023-05-27T10:05:51;7.28;;;2.95;;
63120;SDS011;54478;48.684;20.114;2023-05-27T10:08:19;9.20;;;4.45;;
63120;SDS011;54478;48.684;20.114;2023-05-27T10:10:48;7.72;;;3.90;;
63120;SDS011;54478;48.684;20.114;2023-05-27T10:13:16;9.07;;;3.33;;
63120;SDS011;54478;48.684;20.114;2023-05-27T10:15:47;7.50;;;3.30;;
63120;SDS011;54478;48.684;20.114;2023-05-27T10:20:48;10.05;;;2.90;;
63120;SDS011;54478;48.684;20.114;2023-05-27T10:23:21;7.00;;;3.10;;
63120;SDS011;54478;48.684;20.114;2023-05-27T10:25:50;7.30;;;3.30;;
63120;SDS011;54478;48.684;20.114;2023-05-27T10:28:25;7.15;;;3.25;;
63120;SDS011;54478;48.684;20.114;2023-05-27T10:31:04;5.22;;;2.85;;
63120;SDS011;54478;48.684;20.114;2023-05-27T10:33:30;4.30;;;2.63;;
63120;SDS011;54478;48.684;20.114;2023-05-27T10:36:12;7.45;;;2.72;;
63120;SDS011;54478;48.684;20.114;2023-05-27T10:38:38;7.35;;;3.00;;
63120;SDS011;54478;48.684;20.114;2023-05-27T10:41:07;9.70;;;3.38;;
63120;SDS011;54478;48.684;20.114;2023-05-27T10:43:36;5.00;;;2.72;;
63120;SDS011;54478;48.684;20.114;2023-05-27T10:46:37;5.53;;;2.95;;
63120;SDS011;54478;48.684;20.114;2023-05-27T10:48:53;7.18;;;3.08;;
63120;SDS011;54478;48.684;20.114;2023-05-27T10:51:31;5.47;;;3.13;;
63120;SDS011;54478;48.684;20.114;2023-05-27T10:53:56;5.03;;;3.17;;
63120;SDS011;54478;48.684;20.114;2023-05-27T10:56:24;9.73;;;3.47;;
63120;SDS011;54478;48.684;20.114;2023-05-27T10:58:50;8.05;;;3.22;;
63120;SDS011;54478;48.684;20.114;2023-05-27T11:01:19;6.57;;;3.38;;
63120;SDS011;54478;48.684;20.114;2023-05-27T11:03:51;5.57;;;2.92;;
63120;SDS011;54478;48.684;20.114;2023-05-27T11:06:20;5.18;;;2.88;;
63120;SDS011;54478;48.684;20.114;2023-05-27T11:08:48;8.77;;;3.05;;
63120;SDS011;54478;48.684;20.114;2023-05-27T11:11:16;5.70;;;2.90;;
63120;SDS011;54478;48.684;20.114;2023-05-27T11:13:44;6.10;;;2.78;;
63120;SDS011;54478;48.684;20.114;2023-05-27T11:16:13;7.03;;;2.85;;
63120;SDS011;54478;48.684;20.114;2023-05-27T11:18:42;5.85;;;3.05;;
63120;SDS011;54478;48.684;20.114;2023-05-27T11:21:10;8.20;;;3.22;;
63120;SDS011;54478;48.684;20.114;2023-05-27T11:23:40;6.22;;;2.83;;
63120;SDS011;54478;48.684;20.114;2023-05-27T11:26:18;7.00;;;3.10;;
63120;SDS011;54478;48.684;20.114;2023-05-27T11:28:45;6.13;;;2.97;;
63120;SDS011;54478;48.684;20.114;2023-05-27T11:31:13;6.20;;;2.97;;
63120;SDS011;54478;48.684;20.114;2023-05-27T11:33:43;7.00;;;3.60;;
63120;SDS011;54478;48.684;20.114;2023-05-27T11:36:12;5.85;;;3.10;;
63120;SDS011;54478;48.684;20.114;2023-05-27T11:41:15;4.47;;;3.05;;
63120;SDS011;54478;48.684;20.114;2023-05-27T11:43:47;6.85;;;3.38;;
63120;SDS011;54478;48.684;20.114;2023-05-27T11:48:44;5.82;;;2.88;;
63120;SDS011;54478;48.684;20.114;2023-05-27T11:51:12;8.27;;;2.88;;
63120;SDS011;54478;48.684;20.114;2023-05-27T11:53:44;6.53;;;2.90;;
63120;SDS011;54478;48.684;20.114;2023-05-27T11:56:13;6.32;;;2.70;;
63120;SDS011;54478;48.684;20.114;2023-05-27T11:58:39;5.10;;;2.75;;
63120;SDS011;54478;48.684;20.114;2023-05-27T12:01:06;6.60;;;3.28;;
63120;SDS011;54478;48.684;20.114;2023-05-27T12:03:33;7.15;;;3.15;;
63120;SDS011;54478;48.684;20.114;2023-05-27T12:06:01;6.22;;;2.88;;
63120;SDS011;54478;48.684;20.114;2023-05-27T12:08:30;5.75;;;2.63;;
63120;SDS011;54478;48.684;20.114;2023-05-27T12:10:58;6.28;;;3.38;;
63120;SDS011;54478;48.684;20.114;2023-05-27T12:13:26;6.97;;;3.03;;
63120;SDS011;54478;48.684;20.114;2023-05-27T12:15:55;7.03;;;3.08;;
63120;SDS011;54478;48.684;20.114;2023-05-27T12:18:23;9.23;;;3.42;;
63120;SDS011;54478;48.684;20.114;2023-05-27T12:20:51;7.88;;;3.22;;
63120;SDS011;54478;48.684;20.114;2023-05-27T12:23:20;15.25;;;3.30;;
63120;SDS011;54478;48.684;20.114;2023-05-27T12:25:48;5.60;;;2.92;;
63120;SDS011;54478;48.684;20.114;2023-05-27T12:28:16;8.18;;;3.30;;
63120;SDS011;54478;48.684;20.114;2023-05-27T12:30:44;7.15;;;3.08;;
63120;SDS011;54478;48.684;20.114;2023-05-27T12:33:14;6.35;;;2.80;;
63120;SDS011;54478;48.684;20.114;2023-05-27T12:35:42;9.50;;;3.00;;
63120;SDS011;54478;48.684;20.114;2023-05-27T12:38:10;7.10;;;3.22;;
63120;SDS011;54478;48.684;20.114;2023-05-27T12:40:38;5.53;;;3.10;;
63120;SDS011;54478;48.684;20.114;2023-05-27T12:43:07;4.95;;;2.88;;
63120;SDS011;54478;48.684;20.114;2023-05-27T12:45:35;6.00;;;3.33;;
63120;SDS011;54478;48.684;20.114;2023-05-27T12:48:03;7.75;;;3.08;;
63120;SDS011;54478;48.684;20.114;2023-05-27T12:50:32;12.15;;;10.48;;
63120;SDS011;54478;48.684;20.114;2023-05-27T12:53:01;7.65;;;3.30;;
63120;SDS011;54478;48.684;20.114;2023-05-27T12:55:30;6.03;;;3.17;;
63120;SDS011;54478;48.684;20.114;2023-05-27T12:57:58;4.65;;;3.00;;
63120;SDS011;54478;48.684;20.114;2023-05-27T13:00:27;8.13;;;3.50;;
63120;SDS011;54478;48.684;20.114;2023-05-27T13:02:55;7.47;;;3.20;;
63120;SDS011;54478;48.684;20.114;2023-05-27T13:05:23;6.43;;;3.30;;
63120;SDS011;54478;48.684;20.114;2023-05-27T13:10:23;7.22;;;3.25;;
63120;SDS011;54478;48.684;20.114;2023-05-27T13:12:52;6.38;;;3.33;;
63120;SDS011;54478;48.684;20.114;2023-05-27T13:15:20;7.90;;;2.95;;
63120;SDS011;54478;48.684;20.114;2023-05-27T13:17:50;6.13;;;2.97;;
63120;SDS011;54478;48.684;20.114;2023-05-27T13:20:18;6.65;;;3.28;;
63120;SDS011;54478;48.684;20.114;2023-05-27T13:22:47;6.65;;;3.13;;
63120;SDS011;54478;48.684;20.114;2023-05-27T13:25:16;5.28;;;3.00;;
63120;SDS011;54478;48.684;20.114;2023-05-27T13:27:44;5.15;;;2.90;;
63120;SDS011;54478;48.684;20.114;2023-05-27T13:30:13;7.57;;;3.35;;
63120;SDS011;54478;48.684;20.114;2023-05-27T13:32:41;9.77;;;3.53;;
63120;SDS011;54478;48.684;20.114;2023-05-27T13:35:11;6.28;;;3.22;;
63120;SDS011;54478;48.684;20.114;2023-05-27T13:37:39;5.50;;;2.80;;
63120;SDS011;54478;48.684;20.114;2023-05-27T13:40:07;6.40;;;3.00;;
63120;SDS011;54478;48.684;20.114;2023-05-27T13:42:36;6.80;;;3.00;;
63120;SDS011;54478;48.684;20.114;2023-05-27T13:45:04;6.25;;;2.90;;
63120;SDS011;54478;48.684;20.114;2023-05-27T13:47:33;8.80;;;3.13;;
63120;SDS011;54478;48.684;20.114;2023-05-27T13:50:01;7.22;;;3.03;;
63120;SDS011;54478;48.684;20.114;2023-05-27T13:52:29;7.93;;;3.30;;
63120;SDS011;54478;48.684;20.114;2023-05-27T13:54:58;6.07;;;2.95;;
63120;SDS011;54478;48.684;20.114;2023-05-27T13:57:26;7.47;;;3.05;;
63120;SDS011;54478;48.684;20.114;2023-05-27T13:59:51;7.22;;;3.13;;
63120;SDS011;54478;48.684;20.114;2023-05-27T14:02:20;7.70;;;3.80;;
63120;SDS011;54478;48.684;20.114;2023-05-27T14:04:48;6.43;;;3.33;;
63120;SDS011;54478;48.684;20.114;2023-05-27T14:07:16;4.60;;;3.22;;
63120;SDS011;54478;48.684;20.114;2023-05-27T14:09:45;5.93;;;3.00;;
63120;SDS011;54478;48.684;20.114;2023-05-27T14:12:13;5.60;;;2.95;;
63120;SDS011;54478;48.684;20.114;2023-05-27T14:14:42;6.35;;;3.53;;
63120;SDS011;54478;48.684;20.114;2023-05-27T14:17:10;5.13;;;3.30;;
63120;SDS011;54478;48.684;20.114;2023-05-27T14:19:38;7.05;;;3.55;;
63120;SDS011;54478;48.684;20.114;2023-05-27T14:22:06;7.95;;;4.05;;
63120;SDS011;54478;48.684;20.114;2023-05-27T14:24:34;6.20;;;2.90;;
63120;SDS011;54478;48.684;20.114;2023-05-27T14:27:03;9.05;;;3.30;;
63120;SDS011;54478;48.684;20.114;2023-05-27T14:29:31;7.97;;;2.97;;
63120;SDS011;54478;48.684;20.114;2023-05-27T14:32:00;7.30;;;3.25;;
63120;SDS011;54478;48.684;20.114;2023-05-27T14:34:28;7.68;;;3.13;;
63120;SDS011;54478;48.684;20.114;2023-05-27T14:36:56;7.30;;;3.00;;
63120;SDS011;54478;48.684;20.114;2023-05-27T14:39:24;8.35;;;3.50;;
63120;SDS011;54478;48.684;20.114;2023-05-27T14:41:53;4.75;;;3.05;;
63120;SDS011;54478;48.684;20.114;2023-05-27T14:44:23;10.03;;;3.40;;
63120;SDS011;54478;48.684;20.114;2023-05-27T14:46:51;6.47;;;3.10;;
63120;SDS011;54478;48.684;20.114;2023-05-27T14:49:19;7.28;;;3.35;;
63120;SDS011;54478;48.684;20.114;2023-05-27T14:51:47;8.10;;;3.30;;